»·PEaware :: GDS55 KSDL-KVGT

GDS55 :: KSDL-KVGT

FLIGHT INFORMATION

Flight Status: Arrived
Operator: Unknown
More flights by this operator :: More flights under this callsign
Pilot: Gabor H. (24209)
Aircraft: Unknown
(PC24)
More flights by this aircraft type
Origin: KSDL Scottsdale
United States
Destination: KVGT North Las Vegas
United States
More flights between these airports :: More routes between these airports
Route: MAYSA6 SISIE IGM KADDY3
File this flight plan on PilotEdge
Remarks:
Altitude:
(Current/Filed)
24,000ft
Speed:
(Current/Filed)
390kts
Departed: 02-Jan-20 10:19 AM
Arrived: 02-Jan-20 11:08 AM
Distance/Time
Traveled:
224nm/0:49
Distance/Time
To Go:
Arrived

Flight Plot

Page will automatically refresh every two minutes.

Flight plan parsing failed; only flown route is shown


Map Options




Map Legend


Flown Route
Filed Route
Departure Airport
Arrival Airport
Navaid (VOR, NDB)
Fix

Horizontal Profiles

Position Reports

Time Latitude Longitude Heading Altitude Ground
Speed
02-Jan-20 10:03 33.620063 -111.915809 132 1460ft 0kts
02-Jan-20 10:04 33.620063 -111.915809 132 1460ft 0kts
02-Jan-20 10:05 33.620063 -111.915809 132 1460ft 0kts
02-Jan-20 10:06 33.620063 -111.915809 132 1460ft 0kts
02-Jan-20 10:07 33.620063 -111.915809 132 1460ft 0kts
02-Jan-20 10:08 33.620063 -111.915809 132 1460ft 0kts
02-Jan-20 10:09 33.620063 -111.915809 132 1460ft 0kts
02-Jan-20 10:10 33.620063 -111.915809 132 1460ft 0kts
02-Jan-20 10:11 33.620063 -111.915809 132 1460ft 0kts
02-Jan-20 10:12 33.620063 -111.915809 132 1460ft 0kts
02-Jan-20 10:13 33.620063 -111.915809 132 1460ft 0kts
02-Jan-20 10:14 33.620004 -111.915747 150 1460ft 5kts
02-Jan-20 10:15 33.618484 -111.916716 226 1456ft 13kts
02-Jan-20 10:15 33.615997 -111.919625 222 1446ft 6kts
02-Jan-20 10:17 33.615167 -111.920370 163 1443ft 0kts
02-Jan-20 10:18 33.615167 -111.920370 163 1443ft 0kts
02-Jan-20 10:19 33.618021 -111.916170 42 1457ft 115kts
02-Jan-20 10:20 33.661625 -111.889768 346 3506ft 165kts
02-Jan-20 10:20 33.698948 -111.901798 345 5273ft 183kts
02-Jan-20 10:22 33.756762 -111.921361 345 8321ft 180kts
02-Jan-20 10:22 33.801825 -111.937398 345 10863ft 226kts
02-Jan-20 10:23 33.867408 -111.961470 345 13887ft 282kts
02-Jan-20 10:25 33.965416 -111.997882 345 17407ft 336kts
02-Jan-20 10:25 34.039723 -112.025858 345 19875ft 336kts
02-Jan-20 10:27 34.146871 -112.066214 345 20980ft 367kts
02-Jan-20 10:27 34.220142 -112.119687 314 20992ft 398kts
02-Jan-20 10:28 34.288377 -112.225604 314 21212ft 396kts
02-Jan-20 10:29 34.353597 -112.328348 314 22713ft 377kts
02-Jan-20 10:30 34.416347 -112.427417 315 23977ft 371kts
02-Jan-20 10:31 34.480263 -112.528620 315 23991ft 384kts
02-Jan-20 10:32 34.545367 -112.632061 315 23987ft 388kts
02-Jan-20 10:33 34.611034 -112.736699 314 23988ft 388kts
02-Jan-20 10:34 34.676227 -112.840875 314 23988ft 388kts
02-Jan-20 10:35 34.741068 -112.944790 314 23986ft 383kts
02-Jan-20 10:36 34.804683 -113.047059 314 23984ft 377kts
02-Jan-20 10:37 34.867592 -113.148458 314 24004ft 373kts
02-Jan-20 10:38 34.930185 -113.249653 314 24026ft 374kts
02-Jan-20 10:39 34.991468 -113.352350 308 24037ft 382kts
02-Jan-20 10:40 35.044137 -113.465529 308 24034ft 386kts
02-Jan-20 10:41 35.097213 -113.579897 308 24033ft 388kts
02-Jan-20 10:42 35.150612 -113.695312 307 24052ft 390kts
02-Jan-20 10:43 35.203579 -113.810155 307 22897ft 389kts
02-Jan-20 10:44 35.258912 -113.923108 322 21390ft 369kts
02-Jan-20 10:45 35.345151 -113.982023 338 19918ft 354kts
02-Jan-20 10:46 35.434636 -114.033295 338 18429ft 357kts
02-Jan-20 10:47 35.524881 -114.084922 338 16925ft 362kts
02-Jan-20 10:48 35.611370 -114.143962 317 15388ft 352kts
02-Jan-20 10:49 35.666175 -114.240595 309 13694ft 331kts
02-Jan-20 10:50 35.712568 -114.327637 309 12307ft 272kts
02-Jan-20 10:51 35.757843 -114.390823 336 11993ft 224kts
02-Jan-20 10:52 35.814365 -114.427184 336 11494ft 247kts
02-Jan-20 10:53 35.878667 -114.467467 336 9983ft 257kts
02-Jan-20 10:54 35.940889 -114.506456 335 8458ft 248kts
02-Jan-20 10:55 35.966523 -114.575067 291 8001ft 199kts
02-Jan-20 10:56 35.980357 -114.641554 292 8008ft 209kts
02-Jan-20 10:57 35.995607 -114.712264 291 7503ft 207kts
02-Jan-20 10:58 36.009389 -114.776961 291 7002ft 179kts
02-Jan-20 10:59 36.024716 -114.843050 295 6639ft 223kts
02-Jan-20 11:00 36.045368 -114.909163 301 5904ft 190kts
02-Jan-20 11:01 36.069276 -114.963248 303 5073ft 162kts
02-Jan-20 11:02 36.092771 -115.010681 304 4337ft 174kts
02-Jan-20 11:03 36.119330 -115.062187 305 4012ft 175kts
02-Jan-20 11:04 36.146859 -115.115714 314 3988ft 185kts
02-Jan-20 11:05 36.178081 -115.156153 316 2897ft 130kts
02-Jan-20 11:06 36.201332 -115.185747 317 2291ft 104kts
02-Jan-20 11:07 36.208181 -115.195099 226 2188ft 4kts
02-Jan-20 11:08 36.208061 -115.195270 252 2188ft 4kts
02-Jan-20 11:09 36.210207 -115.198176 314 2198ft 7kts
02-Jan-20 11:10 36.209766 -115.201308 237 2206ft 13kts
02-Jan-20 11:11 36.208746 -115.201807 227 2205ft 0kts
02-Jan-20 11:12 36.208746 -115.201807 227 2205ft 0kts

Navigation Log

Ident Type
Flight plan parsing failed, navigation log unavailable